Sayreville, New Jersey
Current Conditions -  °F | °C
As of 9:35 PM on Thursday 20 Nov 2014 (Local Time) from KLDJ Reporting Station
Clear Clear  
Wind Chill: 29°   Ceiling: Unl
Heat Index: 37°   Visibility: 10mi
Dew Point: 10°   Wind: 14mph
Humidity: 33%   Direction: 310°NW
Pressure: 30.02"   Gusts: 22mph
Location:  40.47°N, 74.36°W
Report Text: KLDJ 210235Z AUTO 31012G19KT 10SM CLR 03/M12 A3002 RMK AO2 T00301120
Loading
Personal Weather Stations






























Interactive Weather Map New forecast layout! Learn more

10-Day Weather Forecast

Advertisements
Track Severe Weather on mobile